sensor_id;sensor_type;location;lat;lon;timestamp;P1;durP1;ratioP1;P2;durP2;ratioP2
18711;SDS011;9485;49.386;8.674;2022-08-03T00:00:24;2.72;;;2.00;;
18711;SDS011;9485;49.386;8.674;2022-08-03T00:05:46;2.75;;;2.28;;
18711;SDS011;9485;49.386;8.674;2022-08-03T00:11:07;2.28;;;2.08;;
18711;SDS011;9485;49.386;8.674;2022-08-03T00:16:27;2.50;;;2.30;;
18711;SDS011;9485;49.386;8.674;2022-08-03T00:21:49;2.72;;;1.90;;
18711;SDS011;9485;49.386;8.674;2022-08-03T00:27:09;2.08;;;1.88;;
18711;SDS011;9485;49.386;8.674;2022-08-03T00:32:30;2.88;;;2.40;;
18711;SDS011;9485;49.386;8.674;2022-08-03T00:37:52;2.20;;;2.00;;
18711;SDS011;9485;49.386;8.674;2022-08-03T00:43:13;3.85;;;2.22;;
18711;SDS011;9485;49.386;8.674;2022-08-03T00:48:34;3.45;;;2.58;;
18711;SDS011;9485;49.386;8.674;2022-08-03T00:53:56;2.83;;;2.38;;
18711;SDS011;9485;49.386;8.674;2022-08-03T00:59:16;3.45;;;2.70;;
18711;SDS011;9485;49.386;8.674;2022-08-03T01:04:37;2.97;;;2.45;;
18711;SDS011;9485;49.386;8.674;2022-08-03T01:10:00;2.67;;;2.47;;
18711;SDS011;9485;49.386;8.674;2022-08-03T01:15:31;2.58;;;2.38;;
18711;SDS011;9485;49.386;8.674;2022-08-03T01:21:01;2.63;;;2.30;;
18711;SDS011;9485;49.386;8.674;2022-08-03T01:32:26;2.15;;;1.95;;
18711;SDS011;9485;49.386;8.674;2022-08-03T01:37:56;2.30;;;1.98;;
18711;SDS011;9485;49.386;8.674;2022-08-03T01:43:22;2.47;;;2.22;;
18711;SDS011;9485;49.386;8.674;2022-08-03T01:48:48;2.78;;;1.98;;
18711;SDS011;9485;49.386;8.674;2022-08-03T01:54:10;2.67;;;1.95;;
18711;SDS011;9485;49.386;8.674;2022-08-03T01:59:33;1.50;;;1.30;;
18711;SDS011;9485;49.386;8.674;2022-08-03T02:04:57;2.38;;;1.67;;
18711;SDS011;9485;49.386;8.674;2022-08-03T02:10:21;2.08;;;1.75;;
18711;SDS011;9485;49.386;8.674;2022-08-03T02:15:46;2.88;;;1.98;;
18711;SDS011;9485;49.386;8.674;2022-08-03T02:21:10;1.55;;;1.45;;
18711;SDS011;9485;49.386;8.674;2022-08-03T02:26:33;2.00;;;1.80;;
18711;SDS011;9485;49.386;8.674;2022-08-03T02:31:59;2.28;;;1.75;;
18711;SDS011;9485;49.386;8.674;2022-08-03T02:37:24;3.58;;;2.58;;
18711;SDS011;9485;49.386;8.674;2022-08-03T02:42:52;3.22;;;2.80;;
18711;SDS011;9485;49.386;8.674;2022-08-03T02:48:19;3.95;;;2.70;;
18711;SDS011;9485;49.386;8.674;2022-08-03T02:53:47;3.42;;;2.83;;
18711;SDS011;9485;49.386;8.674;2022-08-03T02:59:08;4.93;;;3.38;;
18711;SDS011;9485;49.386;8.674;2022-08-03T03:04:31;3.85;;;3.45;;
18711;SDS011;9485;49.386;8.674;2022-08-03T03:09:55;3.10;;;2.90;;
18711;SDS011;9485;49.386;8.674;2022-08-03T03:15:16;3.60;;;3.05;;
18711;SDS011;9485;49.386;8.674;2022-08-03T03:20:37;3.90;;;3.22;;
18711;SDS011;9485;49.386;8.674;2022-08-03T03:26:01;4.32;;;3.25;;
18711;SDS011;9485;49.386;8.674;2022-08-03T03:31:22;3.00;;;2.70;;
18711;SDS011;9485;49.386;8.674;2022-08-03T03:36:43;3.72;;;3.20;;
18711;SDS011;9485;49.386;8.674;2022-08-03T03:42:06;3.85;;;3.05;;
18711;SDS011;9485;49.386;8.674;2022-08-03T03:47:27;4.30;;;2.95;;
18711;SDS011;9485;49.386;8.674;2022-08-03T03:52:48;4.22;;;3.13;;
18711;SDS011;9485;49.386;8.674;2022-08-03T03:58:10;5.32;;;3.00;;
18711;SDS011;9485;49.386;8.674;2022-08-03T04:03:30;3.97;;;2.95;;
18711;SDS011;9485;49.386;8.674;2022-08-03T04:08:51;3.42;;;2.90;;
18711;SDS011;9485;49.386;8.674;2022-08-03T04:14:31;3.13;;;2.83;;
18711;SDS011;9485;49.386;8.674;2022-08-03T04:19:54;3.25;;;2.53;;
18711;SDS011;9485;49.386;8.674;2022-08-03T04:25:18;3.30;;;3.00;;
18711;SDS011;9485;49.386;8.674;2022-08-03T04:30:46;3.50;;;3.05;;
18711;SDS011;9485;49.386;8.674;2022-08-03T04:36:10;3.20;;;2.90;;
18711;SDS011;9485;49.386;8.674;2022-08-03T04:41:36;3.92;;;3.10;;
18711;SDS011;9485;49.386;8.674;2022-08-03T04:47:01;2.90;;;2.70;;
18711;SDS011;9485;49.386;8.674;2022-08-03T04:52:22;3.00;;;2.72;;
18711;SDS011;9485;49.386;8.674;2022-08-03T04:57:43;3.75;;;2.63;;
18711;SDS011;9485;49.386;8.674;2022-08-03T05:03:05;2.90;;;2.70;;
18711;SDS011;9485;49.386;8.674;2022-08-03T05:08:25;3.03;;;2.72;;
18711;SDS011;9485;49.386;8.674;2022-08-03T05:13:46;4.20;;;3.33;;
18711;SDS011;9485;49.386;8.674;2022-08-03T05:19:07;5.00;;;2.83;;
18711;SDS011;9485;49.386;8.674;2022-08-03T05:24:28;3.03;;;2.72;;
18711;SDS011;9485;49.386;8.674;2022-08-03T05:29:49;5.35;;;3.15;;
18711;SDS011;9485;49.386;8.674;2022-08-03T05:35:11;3.15;;;2.45;;
18711;SDS011;9485;49.386;8.674;2022-08-03T05:40:32;4.45;;;2.42;;
18711;SDS011;9485;49.386;8.674;2022-08-03T05:45:53;3.72;;;2.35;;
18711;SDS011;9485;49.386;8.674;2022-08-03T05:51:15;3.25;;;2.78;;
18711;SDS011;9485;49.386;8.674;2022-08-03T05:56:36;3.50;;;2.30;;
18711;SDS011;9485;49.386;8.674;2022-08-03T06:01:58;3.83;;;2.50;;
18711;SDS011;9485;49.386;8.674;2022-08-03T06:07:20;2.53;;;2.33;;
18711;SDS011;9485;49.386;8.674;2022-08-03T06:12:41;3.72;;;2.90;;
18711;SDS011;9485;49.386;8.674;2022-08-03T06:18:02;5.35;;;2.60;;
18711;SDS011;9485;49.386;8.674;2022-08-03T06:23:24;2.67;;;2.47;;
18711;SDS011;9485;49.386;8.674;2022-08-03T06:28:44;4.90;;;3.65;;
18711;SDS011;9485;49.386;8.674;2022-08-03T06:34:06;4.47;;;2.70;;
18711;SDS011;9485;49.386;8.674;2022-08-03T06:39:29;4.28;;;2.53;;
18711;SDS011;9485;49.386;8.674;2022-08-03T06:44:51;8.77;;;4.38;;
18711;SDS011;9485;49.386;8.674;2022-08-03T06:50:11;2.75;;;2.55;;
18711;SDS011;9485;49.386;8.674;2022-08-03T06:55:33;4.47;;;2.70;;
18711;SDS011;9485;49.386;8.674;2022-08-03T07:00:54;2.70;;;2.33;;
18711;SDS011;9485;49.386;8.674;2022-08-03T07:06:15;3.83;;;2.72;;
18711;SDS011;9485;49.386;8.674;2022-08-03T07:11:37;2.88;;;2.42;;
18711;SDS011;9485;49.386;8.674;2022-08-03T07:16:58;4.28;;;2.67;;
18711;SDS011;9485;49.386;8.674;2022-08-03T07:22:18;3.20;;;2.90;;
18711;SDS011;9485;49.386;8.674;2022-08-03T07:27:43;2.83;;;2.63;;
18711;SDS011;9485;49.386;8.674;2022-08-03T07:33:05;3.35;;;2.30;;
18711;SDS011;9485;49.386;8.674;2022-08-03T07:38:25;6.50;;;2.85;;
18711;SDS011;9485;49.386;8.674;2022-08-03T07:43:47;6.50;;;2.60;;
18711;SDS011;9485;49.386;8.674;2022-08-03T07:49:08;5.13;;;2.67;;
18711;SDS011;9485;49.386;8.674;2022-08-03T07:54:29;3.65;;;2.15;;
18711;SDS011;9485;49.386;8.674;2022-08-03T07:59:51;2.60;;;1.77;;
18711;SDS011;9485;49.386;8.674;2022-08-03T08:05:12;4.75;;;2.08;;
18711;SDS011;9485;49.386;8.674;2022-08-03T08:10:32;2.10;;;1.90;;
18711;SDS011;9485;49.386;8.674;2022-08-03T08:15:55;4.18;;;2.33;;
18711;SDS011;9485;49.386;8.674;2022-08-03T08:21:16;2.40;;;2.20;;
18711;SDS011;9485;49.386;8.674;2022-08-03T08:26:36;2.92;;;1.77;;
18711;SDS011;9485;49.386;8.674;2022-08-03T08:31:58;2.95;;;1.90;;
18711;SDS011;9485;49.386;8.674;2022-08-03T08:37:19;3.42;;;2.13;;
18711;SDS011;9485;49.386;8.674;2022-08-03T08:42:40;2.13;;;1.83;;
18711;SDS011;9485;49.386;8.674;2022-08-03T08:48:04;1.83;;;1.70;;
18711;SDS011;9485;49.386;8.674;2022-08-03T08:53:27;2.35;;;2.00;;
18711;SDS011;9485;49.386;8.674;2022-08-03T08:58:50;2.67;;;1.92;;
18711;SDS011;9485;49.386;8.674;2022-08-03T09:04:21;6.75;;;1.85;;
18711;SDS011;9485;49.386;8.674;2022-08-03T09:09:41;2.60;;;2.10;;
18711;SDS011;9485;49.386;8.674;2022-08-03T09:15:14;2.65;;;1.65;;
18711;SDS011;9485;49.386;8.674;2022-08-03T09:20:38;3.08;;;1.77;;
18711;SDS011;9485;49.386;8.674;2022-08-03T09:25:59;2.33;;;2.13;;
18711;SDS011;9485;49.386;8.674;2022-08-03T09:31:20;2.33;;;1.38;;
18711;SDS011;9485;49.386;8.674;2022-08-03T09:36:51;2.78;;;1.50;;
18711;SDS011;9485;49.386;8.674;2022-08-03T09:42:12;4.38;;;1.60;;
18711;SDS011;9485;49.386;8.674;2022-08-03T09:47:36;2.17;;;1.30;;
18711;SDS011;9485;49.386;8.674;2022-08-03T09:52:58;6.90;;;2.53;;
18711;SDS011;9485;49.386;8.674;2022-08-03T09:58:22;1.15;;;1.10;;
18711;SDS011;9485;49.386;8.674;2022-08-03T10:03:43;1.60;;;1.50;;
18711;SDS011;9485;49.386;8.674;2022-08-03T10:09:19;1.20;;;1.10;;
18711;SDS011;9485;49.386;8.674;2022-08-03T10:14:40;1.30;;;1.20;;
18711;SDS011;9485;49.386;8.674;2022-08-03T10:20:03;1.50;;;1.40;;
18711;SDS011;9485;49.386;8.674;2022-08-03T10:25:27;1.38;;;1.27;;
18711;SDS011;9485;49.386;8.674;2022-08-03T10:30:52;1.30;;;1.20;;
18711;SDS011;9485;49.386;8.674;2022-08-03T10:36:15;1.65;;;1.40;;
18711;SDS011;9485;49.386;8.674;2022-08-03T10:41:38;2.50;;;1.40;;
18711;SDS011;9485;49.386;8.674;2022-08-03T10:47:02;3.40;;;1.55;;
18711;SDS011;9485;49.386;8.674;2022-08-03T10:52:23;1.40;;;1.30;;
18711;SDS011;9485;49.386;8.674;2022-08-03T10:57:47;2.33;;;1.27;;
18711;SDS011;9485;49.386;8.674;2022-08-03T11:03:11;1.98;;;1.45;;
18711;SDS011;9485;49.386;8.674;2022-08-03T11:08:32;1.20;;;1.10;;
18711;SDS011;9485;49.386;8.674;2022-08-03T11:13:59;4.95;;;2.08;;
18711;SDS011;9485;49.386;8.674;2022-08-03T11:19:22;2.47;;;1.70;;
18711;SDS011;9485;49.386;8.674;2022-08-03T11:25:01;2.47;;;1.45;;
18711;SDS011;9485;49.386;8.674;2022-08-03T11:30:23;5.18;;;2.08;;
18711;SDS011;9485;49.386;8.674;2022-08-03T11:35:56;2.08;;;1.42;;
18711;SDS011;9485;49.386;8.674;2022-08-03T11:41:31;1.30;;;1.20;;
18711;SDS011;9485;49.386;8.674;2022-08-03T11:46:53;2.25;;;1.30;;
18711;SDS011;9485;49.386;8.674;2022-08-03T11:52:14;2.67;;;1.40;;
18711;SDS011;9485;49.386;8.674;2022-08-03T11:57:37;2.22;;;1.70;;
18711;SDS011;9485;49.386;8.674;2022-08-03T12:03:03;4.38;;;1.52;;
18711;SDS011;9485;49.386;8.674;2022-08-03T12:08:30;1.85;;;1.73;;
18711;SDS011;9485;49.386;8.674;2022-08-03T12:13:52;1.73;;;1.35;;
18711;SDS011;9485;49.386;8.674;2022-08-03T12:19:14;3.35;;;1.55;;
18711;SDS011;9485;49.386;8.674;2022-08-03T12:24:40;2.28;;;1.58;;
18711;SDS011;9485;49.386;8.674;2022-08-03T12:30:02;1.35;;;1.25;;
18711;SDS011;9485;49.386;8.674;2022-08-03T12:35:25;2.47;;;1.55;;
18711;SDS011;9485;49.386;8.674;2022-08-03T12:40:57;1.95;;;1.25;;
18711;SDS011;9485;49.386;8.674;2022-08-03T12:46:20;1.50;;;1.40;;
18711;SDS011;9485;49.386;8.674;2022-08-03T12:51:56;1.98;;;1.25;;
18711;SDS011;9485;49.386;8.674;2022-08-03T12:57:18;1.67;;;1.27;;
18711;SDS011;9485;49.386;8.674;2022-08-03T13:02:39;1.52;;;1.23;;
18711;SDS011;9485;49.386;8.674;2022-08-03T13:08:01;2.30;;;1.30;;
18711;SDS011;9485;49.386;8.674;2022-08-03T13:13:36;1.45;;;1.17;;
18711;SDS011;9485;49.386;8.674;2022-08-03T13:18:58;1.38;;;1.27;;
18711;SDS011;9485;49.386;8.674;2022-08-03T13:24:20;1.33;;;1.23;;
18711;SDS011;9485;49.386;8.674;2022-08-03T13:29:40;2.33;;;1.40;;
18711;SDS011;9485;49.386;8.674;2022-08-03T13:35:02;1.50;;;1.38;;
18711;SDS011;9485;49.386;8.674;2022-08-03T13:40:25;1.85;;;1.42;;
18711;SDS011;9485;49.386;8.674;2022-08-03T13:45:46;1.35;;;1.25;;
18711;SDS011;9485;49.386;8.674;2022-08-03T13:51:06;1.50;;;1.40;;
18711;SDS011;9485;49.386;8.674;2022-08-03T13:56:29;1.40;;;1.30;;
18711;SDS011;9485;49.386;8.674;2022-08-03T14:01:51;2.22;;;1.20;;
18711;SDS011;9485;49.386;8.674;2022-08-03T14:07:13;1.90;;;1.45;;
18711;SDS011;9485;49.386;8.674;2022-08-03T14:12:35;2.28;;;1.27;;
18711;SDS011;9485;49.386;8.674;2022-08-03T14:17:55;1.35;;;1.25;;
18711;SDS011;9485;49.386;8.674;2022-08-03T14:23:16;1.20;;;1.10;;
18711;SDS011;9485;49.386;8.674;2022-08-03T14:28:39;1.80;;;1.33;;
18711;SDS011;9485;49.386;8.674;2022-08-03T14:34:00;1.92;;;1.40;;
18711;SDS011;9485;49.386;8.674;2022-08-03T14:39:21;2.97;;;1.23;;
18711;SDS011;9485;49.386;8.674;2022-08-03T14:44:42;1.30;;;1.20;;
18711;SDS011;9485;49.386;8.674;2022-08-03T14:50:03;1.23;;;1.15;;
18711;SDS011;9485;49.386;8.674;2022-08-03T14:55:25;2.05;;;1.33;;
18711;SDS011;9485;49.386;8.674;2022-08-03T15:00:47;1.08;;;1.08;;
18711;SDS011;9485;49.386;8.674;2022-08-03T15:06:13;1.33;;;1.23;;
18711;SDS011;9485;49.386;8.674;2022-08-03T15:11:34;1.30;;;1.20;;
18711;SDS011;9485;49.386;8.674;2022-08-03T15:16:56;1.65;;;1.30;;
18711;SDS011;9485;49.386;8.674;2022-08-03T15:22:17;1.30;;;1.17;;
18711;SDS011;9485;49.386;8.674;2022-08-03T15:27:38;1.50;;;1.40;;
18711;SDS011;9485;49.386;8.674;2022-08-03T15:32:59;2.40;;;1.27;;
18711;SDS011;9485;49.386;8.674;2022-08-03T15:38:21;2.17;;;1.20;;
18711;SDS011;9485;49.386;8.674;2022-08-03T15:43:41;1.95;;;1.30;;
18711;SDS011;9485;49.386;8.674;2022-08-03T15:49:05;1.30;;;1.20;;
18711;SDS011;9485;49.386;8.674;2022-08-03T15:54:26;2.20;;;1.40;;
18711;SDS011;9485;49.386;8.674;2022-08-03T15:59:46;1.75;;;1.45;;
18711;SDS011;9485;49.386;8.674;2022-08-03T16:05:09;1.20;;;1.13;;
18711;SDS011;9485;49.386;8.674;2022-08-03T16:10:29;1.17;;;1.08;;
18711;SDS011;9485;49.386;8.674;2022-08-03T16:15:51;2.22;;;1.30;;
18711;SDS011;9485;49.386;8.674;2022-08-03T16:21:14;2.90;;;1.42;;
18711;SDS011;9485;49.386;8.674;2022-08-03T16:26:34;1.58;;;1.40;;
18711;SDS011;9485;49.386;8.674;2022-08-03T16:31:55;1.40;;;1.27;;
18711;SDS011;9485;49.386;8.674;2022-08-03T16:37:17;1.50;;;1.40;;
18711;SDS011;9485;49.386;8.674;2022-08-03T16:42:38;1.08;;;1.08;;
18711;SDS011;9485;49.386;8.674;2022-08-03T16:47:59;2.05;;;1.45;;
18711;SDS011;9485;49.386;8.674;2022-08-03T16:53:21;1.15;;;1.15;;
18711;SDS011;9485;49.386;8.674;2022-08-03T16:58:42;1.67;;;1.58;;
18711;SDS011;9485;49.386;8.674;2022-08-03T17:04:03;2.15;;;1.40;;
18711;SDS011;9485;49.386;8.674;2022-08-03T17:09:25;1.25;;;1.20;;
18711;SDS011;9485;49.386;8.674;2022-08-03T17:14:49;1.98;;;1.60;;
18711;SDS011;9485;49.386;8.674;2022-08-03T17:20:11;1.83;;;1.30;;
18711;SDS011;9485;49.386;8.674;2022-08-03T17:25:35;1.48;;;1.38;;
18711;SDS011;9485;49.386;8.674;2022-08-03T17:30:57;2.58;;;1.80;;
18711;SDS011;9485;49.386;8.674;2022-08-03T17:36:37;2.80;;;1.75;;
18711;SDS011;9485;49.386;8.674;2022-08-03T17:41:59;2.17;;;1.70;;
18711;SDS011;9485;49.386;8.674;2022-08-03T17:47:23;1.77;;;1.50;;
18711;SDS011;9485;49.386;8.674;2022-08-03T17:52:43;3.53;;;1.48;;
18711;SDS011;9485;49.386;8.674;2022-08-03T17:58:10;1.35;;;1.25;;
18711;SDS011;9485;49.386;8.674;2022-08-03T18:03:41;2.53;;;1.73;;
18711;SDS011;9485;49.386;8.674;2022-08-03T18:09:15;2.60;;;1.65;;
18711;SDS011;9485;49.386;8.674;2022-08-03T18:14:42;1.75;;;1.65;;
18711;SDS011;9485;49.386;8.674;2022-08-03T18:20:07;1.50;;;1.40;;
18711;SDS011;9485;49.386;8.674;2022-08-03T18:25:28;3.33;;;1.65;;
18711;SDS011;9485;49.386;8.674;2022-08-03T18:30:51;1.63;;;1.52;;
18711;SDS011;9485;49.386;8.674;2022-08-03T18:36:13;1.60;;;1.50;;
18711;SDS011;9485;49.386;8.674;2022-08-03T18:41:37;1.52;;;1.42;;
18711;SDS011;9485;49.386;8.674;2022-08-03T18:47:02;1.55;;;1.38;;
18711;SDS011;9485;49.386;8.674;2022-08-03T18:52:44;1.70;;;1.60;;
18711;SDS011;9485;49.386;8.674;2022-08-03T18:58:13;2.22;;;1.42;;
18711;SDS011;9485;49.386;8.674;2022-08-03T19:03:45;5.57;;;1.88;;
18711;SDS011;9485;49.386;8.674;2022-08-03T19:09:11;2.90;;;1.98;;
18711;SDS011;9485;49.386;8.674;2022-08-03T19:14:46;3.00;;;2.38;;
18711;SDS011;9485;49.386;8.674;2022-08-03T19:20:16;4.32;;;2.80;;
18711;SDS011;9485;49.386;8.674;2022-08-03T19:25:39;4.50;;;2.50;;
18711;SDS011;9485;49.386;8.674;2022-08-03T19:31:01;2.30;;;2.10;;
18711;SDS011;9485;49.386;8.674;2022-08-03T19:36:24;2.47;;;1.83;;
18711;SDS011;9485;49.386;8.674;2022-08-03T19:41:47;3.20;;;1.73;;
18711;SDS011;9485;49.386;8.674;2022-08-03T19:47:12;2.45;;;1.80;;
18711;SDS011;9485;49.386;8.674;2022-08-03T19:52:40;3.95;;;2.10;;
18711;SDS011;9485;49.386;8.674;2022-08-03T19:58:06;1.77;;;1.58;;
18711;SDS011;9485;49.386;8.674;2022-08-03T20:03:30;2.30;;;2.10;;
18711;SDS011;9485;49.386;8.674;2022-08-03T20:08:53;4.20;;;2.00;;
18711;SDS011;9485;49.386;8.674;2022-08-03T20:14:15;3.13;;;1.88;;
18711;SDS011;9485;49.386;8.674;2022-08-03T20:19:37;5.35;;;2.15;;
18711;SDS011;9485;49.386;8.674;2022-08-03T20:25:00;5.15;;;2.00;;
18711;SDS011;9485;49.386;8.674;2022-08-03T20:30:29;2.45;;;1.73;;
18711;SDS011;9485;49.386;8.674;2022-08-03T20:35:50;2.42;;;2.03;;
18711;SDS011;9485;49.386;8.674;2022-08-03T20:41:12;3.58;;;2.55;;
18711;SDS011;9485;49.386;8.674;2022-08-03T20:46:34;2.17;;;1.88;;
18711;SDS011;9485;49.386;8.674;2022-08-03T20:51:54;3.13;;;1.85;;
18711;SDS011;9485;49.386;8.674;2022-08-03T20:57:16;2.85;;;2.03;;
18711;SDS011;9485;49.386;8.674;2022-08-03T21:02:37;2.35;;;1.70;;
18711;SDS011;9485;49.386;8.674;2022-08-03T21:08:00;1.80;;;1.70;;
18711;SDS011;9485;49.386;8.674;2022-08-03T21:13:28;2.78;;;1.60;;
18711;SDS011;9485;49.386;8.674;2022-08-03T21:19:01;2.08;;;1.88;;
18711;SDS011;9485;49.386;8.674;2022-08-03T21:24:22;1.88;;;1.77;;
18711;SDS011;9485;49.386;8.674;2022-08-03T21:29:49;2.15;;;1.95;;
18711;SDS011;9485;49.386;8.674;2022-08-03T21:35:10;2.40;;;1.90;;
18711;SDS011;9485;49.386;8.674;2022-08-03T21:40:31;2.58;;;2.35;;
18711;SDS011;9485;49.386;8.674;2022-08-03T21:45:57;2.13;;;1.85;;
18711;SDS011;9485;49.386;8.674;2022-08-03T21:51:21;2.10;;;1.85;;
18711;SDS011;9485;49.386;8.674;2022-08-03T21:56:44;1.80;;;1.70;;
18711;SDS011;9485;49.386;8.674;2022-08-03T22:02:11;1.80;;;1.55;;
18711;SDS011;9485;49.386;8.674;2022-08-03T22:07:34;1.75;;;1.63;;
18711;SDS011;9485;49.386;8.674;2022-08-03T22:12:57;2.10;;;1.90;;
18711;SDS011;9485;49.386;8.674;2022-08-03T22:18:19;2.10;;;1.90;;
18711;SDS011;9485;49.386;8.674;2022-08-03T22:23:40;1.67;;;1.58;;
18711;SDS011;9485;49.386;8.674;2022-08-03T22:29:05;2.92;;;1.52;;
18711;SDS011;9485;49.386;8.674;2022-08-03T22:34:28;1.70;;;1.60;;
18711;SDS011;9485;49.386;8.674;2022-08-03T22:39:48;1.80;;;1.70;;
18711;SDS011;9485;49.386;8.674;2022-08-03T22:45:09;1.60;;;1.48;;
18711;SDS011;9485;49.386;8.674;2022-08-03T22:50:32;1.60;;;1.50;;
18711;SDS011;9485;49.386;8.674;2022-08-03T22:55:53;1.52;;;1.42;;
18711;SDS011;9485;49.386;8.674;2022-08-03T23:01:15;3.03;;;1.70;;
18711;SDS011;9485;49.386;8.674;2022-08-03T23:06:42;1.60;;;1.50;;
18711;SDS011;9485;49.386;8.674;2022-08-03T23:12:10;3.08;;;1.73;;
18711;SDS011;9485;49.386;8.674;2022-08-03T23:17:37;2.15;;;1.95;;
18711;SDS011;9485;49.386;8.674;2022-08-03T23:23:05;2.45;;;2.25;;
18711;SDS011;9485;49.386;8.674;2022-08-03T23:28:27;2.55;;;2.15;;
18711;SDS011;9485;49.386;8.674;2022-08-03T23:33:51;3.20;;;2.10;;
18711;SDS011;9485;49.386;8.674;2022-08-03T23:39:30;3.40;;;2.08;;
18711;SDS011;9485;49.386;8.674;2022-08-03T23:44:54;3.85;;;2.22;;
18711;SDS011;9485;49.386;8.674;2022-08-03T23:50:16;2.13;;;1.92;;
18711;SDS011;9485;49.386;8.674;2022-08-03T23:55:46;2.10;;;1.90;;
